Time;durP1;ratioP1;P1;durP2;ratioP2;P2;SDS_P1;SDS_P2;PMS_P1;PMS_P2;Temp;Humidity;BMP_temperature;BMP_pressure;BME280_temperature;BME280_humidity;BME280_pressure;Samples;Min_cycle;Max_cycle;Signal;HPM_P1;HPM_P2
2022/09/28 09:57:30;;;;;;;1.80;1.00;;;;;;;17.23;57.33;98570.88;10141006;28;44745;-79
2022/09/28 10:02:23;;;;;;;6.70;1.35;;;;;;;17.30;57.08;98577.41;10099001;28;66685;-82
2022/09/28 10:07:18;;;;;;;9.13;1.20;;;;;;;17.25;57.30;98579.56;10098244;28;67453;-81
2022/09/28 10:12:11;;;;;;;9.07;1.50;;;;;;;17.26;57.06;98581.19;10097224;28;65642;-86
2022/09/28 10:17:04;;;;;;;5.72;1.00;;;;;;;17.23;56.83;98581.84;10105476;28;66673;-85
2022/09/28 10:21:58;;;;;;;10.43;1.38;;;;;;;17.24;56.57;98581.50;10107940;28;66640;-86
2022/09/28 10:26:51;;;;;;;6.97;1.10;;;;;;;17.18;57.23;98584.78;10104128;28;66871;-87
2022/09/28 10:31:44;;;;;;;5.43;1.20;;;;;;;17.17;57.43;98583.97;9955354;28;66436;-86
2022/09/28 10:36:46;;;;;;;5.10;1.20;;;;;;;17.33;57.05;98578.69;9936766;28;64699;-76
2022/09/28 10:41:41;;;;;;;6.90;1.17;;;;;;;17.44;56.90;98582.59;9937818;28;66732;-79
2022/09/28 10:46:36;;;;;;;3.13;0.95;;;;;;;17.33;56.95;98587.72;9930640;28;66265;-86
2022/09/28 10:51:46;;;;;;;6.40;1.30;;;;;;;17.43;56.60;98594.69;9916985;28;66158;-76
2022/09/28 10:56:38;;;;;;;4.18;1.05;;;;;;;17.40;56.69;98595.38;9935158;28;66420;-80
2022/09/28 11:01:31;;;;;;;2.08;0.85;;;;;;;17.40;56.62;98593.47;9932611;28;65588;-76
2022/09/28 11:06:24;;;;;;;6.65;1.27;;;;;;;17.44;56.42;98593.56;9915023;28;66479;-76
2022/09/28 11:11:19;;;;;;;3.30;1.15;;;;;;;17.39;56.43;98594.59;9905695;28;66165;-76
2022/09/28 11:16:21;;;;;;;3.42;1.05;;;;;;;17.34;56.44;98592.03;9905460;28;65406;-78
2022/09/28 11:21:15;;;;;;;1.75;0.80;;;;;;;17.19;56.67;98595.38;9910592;28;66348;-76
2022/09/28 11:26:07;;;;;;;4.05;1.23;;;;;;;17.14;56.77;98589.31;9902755;28;66478;-76
2022/09/28 11:31:01;;;;;;;2.13;1.00;;;;;;;17.10;56.93;98599.34;9917533;28;66567;-76
2022/09/28 11:35:56;;;;;;;4.63;1.30;;;;;;;17.08;57.06;98586.78;9903579;28;66292;-75
2022/09/28 11:40:54;;;;;;;1.73;0.88;;;;;;;17.21;56.74;98584.09;9895802;28;66235;-75
2022/09/28 11:45:50;;;;;;;2.92;1.33;;;;;;;17.46;56.04;98588.56;9898057;28;66300;-74
2022/09/28 11:50:46;;;;;;;1.77;1.10;;;;;;;17.54;55.79;98589.63;9906637;28;66483;-75
2022/09/28 11:55:40;;;;;;;1.77;0.90;;;;;;;17.42;56.08;98587.63;9897783;28;66099;-75
2022/09/28 12:00:34;;;;;;;1.80;0.90;;;;;;;17.39;56.17;98588.31;9911111;28;66571;-78
2022/09/28 12:05:27;;;;;;;1.95;0.70;;;;;;;17.43;55.95;98592.75;9898211;28;66449;-76
2022/09/28 12:10:25;;;;;;;2.83;1.10;;;;;;;17.36;56.23;98600.72;9899945;28;65827;-74
2022/09/28 12:15:19;;;;;;;4.75;1.58;;;;;;;17.36;56.21;98600.72;9902209;28;65685;-75
2022/09/28 12:20:16;;;;;;;2.38;1.20;;;;;;;17.33;56.43;98606.09;9902503;28;65749;-76
2022/09/28 12:25:10;;;;;;;5.65;1.42;;;;;;;17.39;56.20;98610.22;9906905;28;65778;-76
2022/09/28 12:30:05;;;;;;;3.30;1.35;;;;;;;17.38;56.28;98603.94;9902704;28;65713;-76
2022/09/28 12:34:57;;;;;;;4.75;1.25;;;;;;;17.41;56.37;98610.69;9901802;28;65451;-83
2022/09/28 12:40:23;;;;;;;3.88;1.27;;;;;;;17.44;56.21;98599.84;9894728;28;65969;-82
2022/09/28 12:45:23;;;;;;;2.85;1.00;;;;;;;17.55;55.91;98602.19;9892707;28;65822;-83
2022/09/28 12:50:19;;;;;;;2.38;1.10;;;;;;;17.69;55.76;98591.75;9903795;28;66809;-83
2022/09/28 12:55:22;;;;;;;1.70;1.00;;;;;;;17.49;56.18;98592.59;9898766;28;64184;-83
2022/09/28 13:00:15;;;;;;;2.58;1.00;;;;;;;17.72;55.58;98591.06;9903329;28;66156;-83
2022/09/28 13:05:17;;;;;;;3.17;0.98;;;;;;;17.60;55.95;98591.00;9917520;28;65349;-86
2022/09/28 13:10:15;;;;;;;7.20;1.40;;;;;;;17.52;56.32;98592.69;9907301;28;64947;-74
2022/09/28 13:15:22;;;;;;;2.10;1.27;;;;;;;17.48;56.66;98602.72;9907742;28;66637;-84
2022/09/28 13:20:25;;;;;;;3.28;1.20;;;;;;;17.18;55.06;98598.47;9905442;28;66275;-75
2022/09/28 13:25:19;;;;;;;3.78;1.25;;;;;;;17.16;54.13;98595.25;9903498;28;66528;-78
2022/09/28 13:30:13;;;;;;;2.63;0.88;;;;;;;17.48;52.95;98596.44;9906868;28;66415;-72
2022/09/28 13:35:05;;;;;;;2.42;0.85;;;;;;;17.50;51.98;98600.44;9899585;28;66565;-75
2022/09/28 13:40:04;;;;;;;3.17;0.88;;;;;;;17.32;51.73;98590.78;9907107;28;65462;-75
2022/09/28 13:45:23;;;;;;;3.15;0.73;;;;;;;17.29;51.50;98594.19;9897950;28;66613;-76
2022/09/28 13:50:21;;;;;;;1.90;0.90;;;;;;;17.43;50.32;98592.75;9896742;28;66436;-75
2022/09/28 13:55:20;;;;;;;3.35;1.02;;;;;;;17.30;50.91;98587.56;9898717;28;65591;-71
2022/09/28 14:00:25;;;;;;;3.38;0.60;;;;;;;17.37;50.96;98593.31;9899910;28;65909;-75
2022/09/28 14:05:47;;;;;;;1.63;0.60;;;;;;;17.51;50.25;98596.56;9898016;28;66787;-71
2022/09/28 14:10:50;;;;;;;0.82;0.60;;;;;;;17.45;49.97;98603.41;9895454;28;66572;-70
2022/09/28 14:15:45;;;;;;;1.40;0.70;;;;;;;17.04;50.25;98590.53;9893365;28;66442;-87
2022/09/28 14:20:37;;;;;;;1.63;0.60;;;;;;;17.10;50.66;98597.41;9897736;28;66264;-80
2022/09/28 14:25:30;;;;;;;2.47;0.73;;;;;;;17.05;50.03;98592.91;9896238;28;65780;-80
2022/09/28 14:30:25;;;;;;;3.38;0.70;;;;;;;17.02;50.53;98596.34;9904350;28;66755;-74
2022/09/28 14:35:19;;;;;;;1.92;0.60;;;;;;;16.83;50.88;98600.63;9901177;28;65656;-73
2022/09/28 14:45:37;;;;;;;3.58;0.75;;;;;;;17.14;50.59;98603.81;9908068;28;67347;-76
2022/09/28 14:50:29;;;;;;;6.70;0.93;;;;;;;17.21;49.37;98609.56;9920368;28;64807;-75
2022/09/28 14:55:26;;;;;;;2.63;1.10;;;;;;;16.84;50.91;98613.19;9902383;28;66510;-78
2022/09/28 15:00:20;;;;;;;4.43;1.10;;;;;;;16.66;51.39;98623.47;9917592;28;65401;-78
2022/09/28 15:05:15;;;;;;;6.93;1.00;;;;;;;16.56;51.96;98621.06;9901810;28;66678;-75
2022/09/28 15:10:15;;;;;;;3.15;0.98;;;;;;;16.75;51.59;98621.44;9910941;28;65953;-83
2022/09/28 15:15:18;;;;;;;11.98;1.40;;;;;;;17.12;52.64;98614.28;9906882;28;66541;-79
2022/09/28 15:20:28;;;;;;;8.40;1.63;;;;;;;17.45;52.61;98628.84;9910577;28;65681;-81
2022/09/28 15:25:23;;;;;;;13.80;1.33;;;;;;;17.56;52.65;98626.50;9905025;28;65349;-77
2022/09/28 15:30:26;;;;;;;4.20;1.27;;;;;;;17.34;53.69;98635.84;9904252;28;64328;-80
2022/09/28 15:35:19;;;;;;;4.20;0.95;;;;;;;17.40;53.78;98634.56;9916595;28;65582;-79
2022/09/28 15:40:14;;;;;;;7.60;1.23;;;;;;;17.43;53.82;98641.28;9912336;28;66505;-79
2022/09/28 15:45:23;;;;;;;8.50;1.50;;;;;;;17.51;54.09;98634.13;9904822;28;65430;-81
2022/09/28 15:50:20;;;;;;;9.07;1.67;;;;;;;17.51;54.32;98640.41;9906980;28;65849;-81
2022/09/28 15:55:18;;;;;;;6.05;1.20;;;;;;;17.41;54.24;98647.09;9901755;28;66629;-76
2022/09/28 16:00:24;;;;;;;6.80;1.33;;;;;;;17.33;54.31;98652.66;9901619;28;66313;-75
2022/09/28 16:05:32;;;;;;;5.25;1.17;;;;;;;17.29;54.34;98651.69;9906775;28;65546;-79
2022/09/28 16:10:32;;;;;;;4.85;0.90;;;;;;;17.24;54.57;98652.72;9909603;28;66611;-79
2022/09/28 16:15:25;;;;;;;8.93;1.75;;;;;;;17.33;54.44;98666.34;9916501;28;66624;-78
2022/09/28 16:20:22;;;;;;;13.95;3.13;;;;;;;17.33;54.63;98656.19;9917820;28;68280;-74
2022/09/28 16:25:16;;;;;;;13.68;3.30;;;;;;;17.56;54.11;98653.13;9912447;28;66363;-83
2022/09/28 16:30:20;;;;;;;14.98;3.20;;;;;;;17.57;54.10;98666.47;9910861;28;64586;-75
2022/09/28 16:35:21;;;;;;;15.23;4.10;;;;;;;17.58;54.44;98668.06;9903092;28;64750;-77
2022/09/28 16:40:13;;;;;;;13.02;3.10;;;;;;;17.67;54.05;98676.25;9905186;28;65571;-78
2022/09/28 16:45:06;;;;;;;14.75;3.17;;;;;;;17.26;52.99;98679.78;9904494;28;65948;-73
2022/09/28 16:50:00;;;;;;;5.05;1.90;;;;;;;16.95;52.35;98682.88;9901979;28;66526;-74
2022/09/28 17:00:02;;;;;;;2.55;0.90;;;;;;;16.69;51.93;98689.25;9904124;28;67338;-75
2022/09/28 17:04:56;;;;;;;2.95;1.23;;;;;;;16.91;51.88;98690.13;9908821;28;65220;-72
2022/09/28 17:09:50;;;;;;;1.70;0.85;;;;;;;17.18;51.71;98688.84;9911594;28;65767;-78
2022/09/28 17:14:42;;;;;;;2.92;1.00;;;;;;;17.27;52.00;98693.13;9916869;28;65082;-77
2022/09/28 17:19:34;;;;;;;2.72;1.13;;;;;;;17.33;52.25;98696.47;9917790;28;66501;-79
2022/09/28 17:24:26;;;;;;;5.88;1.55;;;;;;;17.38;52.39;98705.31;9896331;28;65926;-79
2022/09/28 17:29:19;;;;;;;5.82;1.88;;;;;;;17.45;52.71;98707.50;9893713;28;65944;-76
2022/09/28 17:34:12;;;;;;;6.18;1.80;;;;;;;17.51;52.64;98699.88;9905209;28;66348;-85
2022/09/28 17:39:04;;;;;;;4.55;1.65;;;;;;;17.53;53.05;98705.84;9905784;28;65742;-79
2022/09/28 17:43:57;;;;;;;5.13;1.83;;;;;;;17.56;53.16;98714.19;9902833;28;66966;-82
2022/09/28 17:48:50;;;;;;;4.50;1.90;;;;;;;17.63;53.08;98706.28;9905648;28;64351;-79
2022/09/28 17:53:42;;;;;;;4.93;1.80;;;;;;;17.62;53.12;98712.09;9896966;28;66401;-86
2022/09/28 17:58:34;;;;;;;4.85;1.90;;;;;;;17.63;53.24;98720.00;9907273;28;65403;-89
2022/09/28 18:03:26;;;;;;;6.47;1.77;;;;;;;17.65;53.33;98708.66;9896594;28;65268;-89
2022/09/28 18:08:20;;;;;;;4.30;1.75;;;;;;;17.66;53.30;98718.50;9902400;28;64806;-76
2022/09/28 18:13:12;;;;;;;4.25;1.65;;;;;;;17.68;53.13;98721.72;9899771;28;66961;-74
2022/09/28 18:18:08;;;;;;;4.57;1.60;;;;;;;17.66;53.21;98716.56;9905582;28;65994;-73
2022/09/28 18:23:00;;;;;;;3.80;1.50;;;;;;;17.71;53.22;98708.13;9912740;28;66090;-87
2022/09/28 18:27:56;;;;;;;3.58;1.67;;;;;;;17.76;53.06;98715.38;9906882;28;66468;-75
2022/09/28 18:32:48;;;;;;;4.55;1.73;;;;;;;17.71;53.24;98724.56;9911242;28;66339;-74
2022/09/28 18:37:40;;;;;;;3.55;1.63;;;;;;;17.77;53.12;98719.72;9906002;28;66080;-73
2022/09/28 18:42:32;;;;;;;4.15;2.00;;;;;;;17.77;53.31;98719.72;9912690;28;66589;-76
2022/09/28 18:47:26;;;;;;;3.10;1.77;;;;;;;17.85;53.22;98732.53;9912241;28;66106;-76
2022/09/28 18:52:19;;;;;;;4.28;1.45;;;;;;;17.89;53.14;98736.22;9915428;28;65772;-78
2022/09/28 18:57:11;;;;;;;3.60;1.75;;;;;;;17.88;53.06;98739.28;9908027;28;68176;-77
2022/09/28 19:02:03;;;;;;;6.03;1.73;;;;;;;17.90;53.43;98753.47;9905754;28;66910;-74
2022/09/28 19:06:56;;;;;;;4.13;1.80;;;;;;;17.95;53.09;98758.72;9909198;28;66782;-78
2022/09/28 19:11:49;;;;;;;3.33;1.73;;;;;;;18.01;53.18;98757.38;9903187;28;65446;-70
2022/09/28 19:16:41;;;;;;;5.28;1.60;;;;;;;17.99;53.25;98756.94;9910119;28;66790;-76
2022/09/28 19:21:33;;;;;;;3.80;1.50;;;;;;;18.02;53.02;98753.50;9910281;28;65303;-77
2022/09/28 19:26:27;;;;;;;3.22;1.50;;;;;;;18.05;53.13;98756.41;9910235;28;66506;-79
2022/09/28 19:31:19;;;;;;;4.32;1.70;;;;;;;18.09;52.90;98760.06;9902981;28;66361;-76
2022/09/28 19:36:13;;;;;;;3.35;1.35;;;;;;;18.13;52.99;98765.69;9907698;28;66165;-75
2022/09/28 19:41:08;;;;;;;3.45;1.60;;;;;;;18.04;53.29;98768.50;9912132;28;66570;-75
2022/09/28 19:46:03;;;;;;;3.53;1.60;;;;;;;18.04;53.12;98767.69;9914232;28;66230;-76
2022/09/28 19:50:57;;;;;;;2.72;1.30;;;;;;;18.16;53.02;98774.03;9910253;28;66272;-73
2022/09/28 19:55:51;;;;;;;4.78;1.45;;;;;;;18.11;53.18;98782.47;9905387;28;66350;-73
2022/09/28 20:00:43;;;;;;;2.85;1.30;;;;;;;18.06;53.20;98779.13;9916333;28;66250;-80
2022/09/28 20:05:40;;;;;;;2.47;1.10;;;;;;;18.14;53.22;98778.25;9903211;28;66347;-71
2022/09/28 20:10:32;;;;;;;3.50;1.50;;;;;;;18.12;53.03;98770.38;9906573;28;66513;-70
2022/09/28 20:15:24;;;;;;;4.03;1.40;;;;;;;18.10;53.08;98778.13;9914778;28;65501;-72
2022/09/28 20:20:17;;;;;;;2.80;1.30;;;;;;;18.10;53.03;98775.38;9909921;28;66178;-71
2022/09/28 20:25:10;;;;;;;3.05;1.30;;;;;;;18.10;52.97;98789.09;9906527;28;66118;-70
2022/09/28 20:30:02;;;;;;;1.95;1.23;;;;;;;18.12;53.01;98788.75;9903412;28;66126;-70
2022/09/28 20:40:10;;;;;;;2.55;1.23;;;;;;;18.06;53.26;98804.63;10686766;23;44012;-82
2022/09/28 20:45:03;;;;;;;3.22;1.33;;;;;;;18.29;52.74;98798.78;9710740;29;65807;-77
2022/09/28 20:49:55;;;;;;;2.45;1.20;;;;;;;18.30;52.78;98792.97;9711354;29;66269;-81
2022/09/28 20:54:47;;;;;;;3.33;1.30;;;;;;;18.21;52.87;98805.94;9758379;29;65416;-67
2022/09/28 20:59:40;;;;;;;3.67;1.45;;;;;;;18.21;52.84;98803.22;9750133;28;65563;-78
2022/09/28 21:04:32;;;;;;;2.88;1.50;;;;;;;18.23;52.90;98801.72;9737693;29;65872;-77
2022/09/28 21:09:24;;;;;;;3.10;1.42;;;;;;;18.24;52.81;98829.94;9755674;29;65776;-74
2022/09/28 21:14:17;;;;;;;3.67;1.43;;;;;;;18.17;52.90;98833.25;9748698;28;66170;-83
2022/09/28 21:19:10;;;;;;;2.80;1.58;;;;;;;18.17;52.89;98833.25;9760611;29;66433;-85
2022/09/28 21:24:02;;;;;;;2.85;1.45;;;;;;;18.14;52.99;98842.16;9751271;29;66439;-82
2022/09/28 21:28:55;;;;;;;2.05;1.25;;;;;;;18.16;53.01;98839.06;9749836;29;66116;-80
2022/09/28 21:33:47;;;;;;;3.78;1.42;;;;;;;18.22;52.83;98835.00;9754128;29;66548;-84
2022/09/28 21:38:40;;;;;;;2.60;1.48;;;;;;;18.13;53.01;98840.53;9755035;29;65712;-79
2022/09/28 21:43:32;;;;;;;2.55;1.08;;;;;;;18.21;52.82;98825.97;9748173;29;66764;-83
2022/09/28 21:48:25;;;;;;;2.75;1.30;;;;;;;18.24;52.69;98829.94;9756464;29;65908;-82
2022/09/28 21:53:17;;;;;;;4.10;1.33;;;;;;;18.23;52.79;98836.56;9756372;29;66375;-82
2022/09/28 21:58:11;;;;;;;2.90;1.40;;;;;;;18.22;52.96;98832.25;9753891;29;65567;-85
2022/09/28 22:03:04;;;;;;;2.13;1.30;;;;;;;18.18;52.89;98832.09;9752957;29;65519;-86
2022/09/28 22:07:56;;;;;;;2.47;1.58;;;;;;;18.19;52.85;98836.47;9749712;29;66370;-86
2022/09/28 22:12:48;;;;;;;3.42;1.20;;;;;;;18.16;52.88;98833.56;9755829;29;66261;-89
